Terminal Aerodrome Forecast
Issued by NWS

Current Version | Previous Version | Text Only | Print | Product List | Glossary On
Versions: 1 2 3 4 5 6 7 8 9 10 11 12 13 14 15 16 17 18 19 20 21 22 23 24 25 26 27 28 29 30 31 32 33 34 35 36
000
FTUS42 KRAH 011012 AAA
TAFRWI
TAF AMD
KRWI 011012Z 0110/0206 02005KT P6SM OVC025
      TEMPO 0110/0113 6SM -FZRA BKN018
     FM011300 02008KT 5SM -FZRA BR OVC018
     FM011700 06006KT 5SM -RA BR OVC008 WS018/17028KT
     FM012200 VRB03KT 3SM -DZ BR OVC006=

USA.gov is the U.S. government's official web portal to all federal, state and local government web resources and services.